Hana, HI

9:32 AM HST on April 21, 2015 (GMT -1000)
Lahaina | | Change Station
CLOSE
Current Station
Airport
Location: Lahaina,
Elevation: 256 ft
Nearby Weather Stations
Active Advisory: High Surf Advisory

Elev 256 ft 20.96 °N, 156.67 °W | Updated 47 minutes ago

Scattered Clouds
Scattered Clouds
77 °F
Feels Like 77 °F
N
23
Wind Variable Wind from ENE
Gusts 33 mph

Today
High -- | Low -- °F
--% Chance of Precip.
Yesterday
High -- | Low -- °F
Precip. -- in
6:01 AM 6:45 PM
Waxing Crescent, 12% visible
Pressure 30.03 in
Visibility 12.0 miles
Clouds Few 3000 ft
Scattered Clouds 4500 ft
Dew Point 63 °F
Humidity 61%
Rainfall 0.00 in
Snow Depth Not available.
UV 3 out of 12
Pollen Not available.
Air Quality Not available.
Flu Activity Regional
METAR PHJH 211845Z 07020G29KT 12SM FEW030 SCT045 25/17 A3003

More Conditions Fewer Conditions

Pressure 30.03 in
Visibility 12.0 miles
Clouds Few 3000 ft
Scattered Clouds 4500 ft
Dew Point 63 °F
Humidity 61%
Rainfall 0.00 in
Snow Depth Not available.
UV 3 out of 12
Pollen Not available.
Air Quality Not available.
Flu Activity Regional
METAR PHJH 211845Z 07020G29KT 12SM FEW030 SCT045 25/17 A3003

More Conditions Fewer Conditions

10-Day Weather Forecast

Almanac

Astronomy

Apr. 21, 2015 Rise Set
Actual Time
Civil Twilight
Nautical Twilight
Astronomical Twilight
Moon
Length of Visible Light
Length of Day
Tomorrow will be .
, % of the Moon is Illuminated

Today's Extremes

State Highs State Lows

Community

WunderPhotos

Upload Photos

1,815,514 photos uploaded!

WunderBlogs® & News

Nearby

Air Quality

  Air Quality AQ Index Pollutant
Not available.

Snow Depth

Station Depth Elevation

Earthquake Activity

City Distance Mag. Time & Date
Minimum magnitude displayed is 2.5.

Coastal Water Temperatures

Place Temperature

Stations

Nearby Weather Stations

Station Location Temp. Windchill Dew Point Humidity Wind Precip. Elev Updated Type
                   
High Surf Advisory
Statement as of 3:39 AM HST on April 21, 2015

... High surf advisory remains in effect until 6 am HST
Wednesday...

A high surf advisory remains in effect until 6 am HST Wednesday.

* Surf... 6 to 10 feet along east facing shores.

* Timing... through early Wednesday.

* Impacts... moderate... expect strong breaking waves... shore
break... and strong longshore and rip currents making swimming
difficult and dangerous.

Precautionary/preparedness actions...

Beachgoers... swimmers... and surfers should heed all advice given
by ocean safety officials and be careful.